Time;durP1;ratioP1;P1;durP2;ratioP2;P2;SDS_P1;SDS_P2;PMS_P1;PMS_P2;Temp;Humidity;BMP_temperature;BMP_pressure;BME280_temperature;BME280_humidity;BME280_pressure;Samples;Min_cycle;Max_cycle;Signal;HPM_P1;HPM_P2
2022/11/23 00:00:09;;;;;;;1.25;0.60;;;21.50;44.70;;;;;;4119756;28;20097;-47
2022/11/23 00:02:32;;;;;;;0.50;0.50;;;21.50;44.70;;;;;;4114219;28;20355;-46
2022/11/23 00:04:54;;;;;;;1.38;0.52;;;21.50;45.30;;;;;;4120727;28;20117;-48
2022/11/23 00:07:17;;;;;;;1.15;0.60;;;21.50;44.60;;;;;;4116512;28;20076;-46
2022/11/23 00:09:39;;;;;;;1.35;0.70;;;21.50;44.60;;;;;;4115902;28;20034;-48
2022/11/23 00:12:02;;;;;;;1.58;0.50;;;21.60;44.60;;;;;;4114728;28;20038;-47
2022/11/23 00:14:25;;;;;;;1.52;0.65;;;21.60;44.60;;;;;;4115225;28;20121;-50
2022/11/23 00:16:47;;;;;;;1.48;0.50;;;21.60;44.60;;;;;;4114785;28;20049;-50
2022/11/23 00:19:10;;;;;;;0.60;0.43;;;21.60;44.60;;;;;;4112040;28;20138;-47
2022/11/23 00:21:33;;;;;;;1.42;0.73;;;21.60;44.50;;;;;;4117116;28;20050;-52
2022/11/23 00:23:55;;;;;;;1.05;0.50;;;21.60;44.50;;;;;;4113100;28;20493;-48
2022/11/23 00:26:18;;;;;;;0.98;0.60;;;21.70;44.60;;;;;;4101283;28;20042;-49
2022/11/23 00:28:41;;;;;;;0.98;0.55;;;21.70;44.60;;;;;;4116790;28;20561;-50
2022/11/23 00:31:04;;;;;;;1.90;0.50;;;21.70;44.60;;;;;;4115452;28;20057;-49
2022/11/23 00:33:27;;;;;;;1.00;0.40;;;21.70;45.20;;;;;;4114686;28;20038;-49
2022/11/23 00:36:03;;;;;;;1.15;0.47;;;21.70;44.60;;;;;;4115581;28;20042;-49
2022/11/23 00:38:26;;;;;;;0.40;0.40;;;21.70;44.60;;;;;;4116680;28;20097;-50
2022/11/23 00:40:49;;;;;;;1.25;0.80;;;21.70;44.60;;;;;;4112775;28;20035;-48
2022/11/23 00:43:11;;;;;;;0.82;0.55;;;21.70;44.70;;;;;;4107542;28;20130;-50
2022/11/23 00:45:34;;;;;;;0.82;0.45;;;21.70;44.70;;;;;;4113610;28;20041;-50
2022/11/23 00:47:56;;;;;;;0.38;0.38;;;21.70;44.60;;;;;;4098123;28;20182;-47
2022/11/23 00:50:19;;;;;;;1.17;0.50;;;21.80;44.70;;;;;;4110405;28;20145;-50
2022/11/23 00:52:41;;;;;;;1.00;0.50;;;21.80;44.70;;;;;;4115322;28;20419;-50
2022/11/23 00:55:04;;;;;;;1.13;0.55;;;21.80;44.70;;;;;;4118315;28;20053;-46
2022/11/23 00:57:27;;;;;;;0.55;0.50;;;21.80;44.60;;;;;;4119059;28;20088;-49
2022/11/23 00:59:49;;;;;;;0.52;0.50;;;21.80;44.60;;;;;;4116082;28;20141;-47
2022/11/23 01:02:12;;;;;;;0.43;0.32;;;21.80;44.60;;;;;;4118453;28;20074;-46
2022/11/23 01:04:34;;;;;;;0.70;0.50;;;21.80;44.60;;;;;;4118017;28;20042;-49
2022/11/23 01:06:57;;;;;;;0.63;0.45;;;21.80;44.60;;;;;;4117392;28;20127;-51
2022/11/23 01:09:23;;;;;;;0.70;0.32;;;21.80;44.60;;;;;;4117069;28;20054;-48
2022/11/23 01:11:46;;;;;;;0.55;0.55;;;21.90;44.60;;;;;;4115307;28;20116;-50
2022/11/23 01:14:09;;;;;;;0.50;0.40;;;21.90;44.60;;;;;;4113616;28;20034;-48
2022/11/23 01:16:37;;;;;;;1.05;0.50;;;21.90;44.60;;;;;;4103355;28;20058;-47
2022/11/23 01:19:08;;;;;;;0.30;0.30;;;21.90;44.50;;;;;;4112192;28;20107;-52
2022/11/23 01:21:32;;;;;;;0.52;0.30;;;21.90;44.60;;;;;;4115013;28;20070;-49
2022/11/23 01:23:56;;;;;;;0.47;0.45;;;22.00;44.50;;;;;;4114217;28;20034;-48
2022/11/23 01:26:19;;;;;;;0.65;0.47;;;22.00;44.50;;;;;;4119170;28;20039;-49
2022/11/23 01:28:42;;;;;;;0.20;0.20;;;22.00;44.50;;;;;;4112694;28;20038;-48
2022/11/23 01:31:07;;;;;;;0.25;0.25;;;22.00;44.50;;;;;;4118754;28;20304;-51
2022/11/23 01:33:29;;;;;;;1.27;0.50;;;22.10;44.60;;;;;;4119070;28;20560;-48
2022/11/23 01:35:52;;;;;;;0.47;0.40;;;22.10;44.50;;;;;;4117336;28;20564;-46
2022/11/23 01:38:14;;;;;;;1.35;0.52;;;22.10;45.10;;;;;;4116337;28;20058;-49
2022/11/23 01:40:43;;;;;;;0.95;0.40;;;22.10;44.50;;;;;;4118562;28;20081;-47
2022/11/23 01:43:13;;;;;;;0.32;0.30;;;22.10;44.50;;;;;;4101328;28;20472;-49
2022/11/23 01:45:37;;;;;;;0.43;0.40;;;22.10;44.40;;;;;;4119087;28;20113;-47
2022/11/23 01:48:02;;;;;;;1.08;0.47;;;22.20;44.50;;;;;;4116302;28;20355;-48
2022/11/23 01:50:25;;;;;;;1.48;0.47;;;22.20;44.50;;;;;;4117256;28;20038;-46
2022/11/23 01:52:47;;;;;;;0.50;0.40;;;22.20;44.40;;;;;;4115212;28;20489;-45
2022/11/23 01:55:10;;;;;;;0.43;0.40;;;22.20;44.40;;;;;;4118092;28;20116;-47
2022/11/23 01:57:38;;;;;;;0.52;0.40;;;22.20;44.40;;;;;;4113608;28;20072;-52
2022/11/23 02:00:01;;;;;;;0.57;0.50;;;22.20;44.50;;;;;;4119091;28;20038;-52
2022/11/23 02:02:24;;;;;;;0.65;0.40;;;22.30;44.50;;;;;;4118181;28;20042;-49
2022/11/23 02:04:52;;;;;;;0.68;0.40;;;22.30;44.50;;;;;;4114526;28;20494;-49
2022/11/23 02:07:18;;;;;;;0.45;0.40;;;22.30;44.40;;;;;;4116848;28;20053;-49
2022/11/23 02:09:42;;;;;;;0.30;0.30;;;22.30;44.30;;;;;;4114942;28;20065;-52
2022/11/23 02:12:11;;;;;;;0.82;0.50;;;22.40;44.40;;;;;;4116106;28;20077;-50
2022/11/23 02:14:35;;;;;;;0.98;0.28;;;22.40;44.30;;;;;;4117501;28;20030;-48
2022/11/23 02:17:00;;;;;;;1.60;0.40;;;22.40;44.30;;;;;;4115417;28;20042;-46
2022/11/23 02:19:31;;;;;;;0.55;0.50;;;22.50;44.30;;;;;;4119986;28;20079;-52
2022/11/23 02:21:57;;;;;;;0.63;0.43;;;22.50;44.40;;;;;;4118131;28;20166;-51
2022/11/23 02:24:40;;;;;;;0.30;0.30;;;22.50;44.30;;;;;;4113078;28;20046;-48
2022/11/23 02:27:06;;;;;;;0.52;0.35;;;22.50;44.30;;;;;;4117648;28;20096;-50
2022/11/23 02:29:29;;;;;;;0.30;0.30;;;22.50;44.30;;;;;;4117904;28;20366;-52
2022/11/23 02:31:53;;;;;;;0.65;0.40;;;22.60;44.30;;;;;;4104027;28;20083;-51
2022/11/23 02:34:17;;;;;;;1.05;0.60;;;22.60;44.30;;;;;;4103323;28;20046;-52
2022/11/23 02:36:42;;;;;;;0.30;0.30;;;22.60;44.30;;;;;;4118891;28;20069;-52
2022/11/23 02:39:27;;;;;;;0.30;0.30;;;22.60;44.30;;;;;;4116963;28;20050;-52
2022/11/23 02:41:52;;;;;;;0.38;0.38;;;22.60;44.30;;;;;;4113042;28;20046;-49
2022/11/23 02:44:41;;;;;;;0.50;0.40;;;22.70;44.30;;;;;;4112423;28;20042;-51
2022/11/23 02:47:05;;;;;;;0.40;0.40;;;22.70;44.20;;;;;;4081066;28;20041;-52
2022/11/23 02:49:28;;;;;;;0.40;0.40;;;22.70;44.20;;;;;;4106912;28;20041;-48
2022/11/23 02:51:51;;;;;;;0.30;0.30;;;22.80;44.30;;;;;;4111910;28;20096;-47
2022/11/23 02:54:14;;;;;;;0.30;0.30;;;22.80;44.20;;;;;;4110587;28;20030;-48
2022/11/23 02:56:36;;;;;;;0.43;0.40;;;22.80;44.20;;;;;;4112256;28;20042;-47
2022/11/23 02:58:59;;;;;;;0.30;0.30;;;22.90;44.30;;;;;;4109840;28;20079;-49
2022/11/23 03:01:21;;;;;;;0.32;0.30;;;22.90;44.20;;;;;;4107396;28;20049;-48
2022/11/23 03:03:44;;;;;;;0.40;0.40;;;22.90;44.10;;;;;;4110240;28;20084;-49
2022/11/23 03:06:06;;;;;;;0.55;0.30;;;22.90;44.20;;;;;;4107249;28;20034;-50
2022/11/23 03:08:29;;;;;;;0.40;0.30;;;22.90;44.10;;;;;;4106198;28;20057;-50
2022/11/23 03:10:52;;;;;;;0.28;0.28;;;23.00;44.20;;;;;;4108033;28;20489;-49
2022/11/23 03:13:14;;;;;;;0.30;0.30;;;23.00;44.10;;;;;;4104603;28;20042;-47
2022/11/23 03:15:37;;;;;;;1.10;0.30;;;23.10;44.20;;;;;;4106039;28;20038;-48
2022/11/23 03:17:59;;;;;;;1.60;0.40;;;23.00;44.10;;;;;;4107360;28;20426;-47
2022/11/23 03:20:22;;;;;;;0.30;0.30;;;23.10;44.20;;;;;;4110535;28;20906;-47
2022/11/23 03:22:45;;;;;;;0.60;0.40;;;23.10;44.30;;;;;;4108603;28;20074;-47
2022/11/23 03:25:08;;;;;;;1.13;0.40;;;23.20;44.20;;;;;;4106521;28;20471;-49
2022/11/23 03:27:32;;;;;;;0.45;0.35;;;23.20;44.20;;;;;;4108778;28;20507;-51
2022/11/23 03:29:54;;;;;;;0.40;0.32;;;23.30;44.90;;;;;;4111413;28;20527;-47
2022/11/23 03:32:17;;;;;;;0.98;0.30;;;23.30;44.20;;;;;;4109697;28;20126;-50
2022/11/23 03:34:41;;;;;;;0.68;0.50;;;23.30;44.20;;;;;;4106002;28;20062;-47
2022/11/23 03:37:03;;;;;;;0.32;0.30;;;23.40;44.20;;;;;;4109298;28;20038;-50
2022/11/23 03:39:26;;;;;;;0.55;0.20;;;23.40;44.20;;;;;;4111060;28;20050;-49
2022/11/23 03:41:48;;;;;;;0.25;0.25;;;23.40;44.10;;;;;;4115743;28;20071;-49
2022/11/23 03:44:11;;;;;;;0.47;0.30;;;23.50;44.20;;;;;;4111193;28;20373;-52
2022/11/23 03:46:34;;;;;;;0.85;0.63;;;23.50;44.20;;;;;;4106123;28;20073;-47
2022/11/23 03:48:56;;;;;;;2.33;0.50;;;23.50;44.50;;;;;;4107983;28;20480;-47
2022/11/23 03:51:19;;;;;;;0.93;0.50;;;23.60;44.70;;;;;;4107553;28;20407;-52
2022/11/23 03:53:42;;;;;;;1.30;0.57;;;23.60;44.70;;;;;;4107560;28;20512;-47
2022/11/23 03:56:04;;;;;;;4.68;0.90;;;23.60;44.60;;;;;;4107345;28;20035;-49
2022/11/23 03:58:27;;;;;;;6.90;3.00;;;23.70;44.90;;;;;;4108325;28;20044;-46
2022/11/23 04:00:50;;;;;;;4.78;2.90;;;23.80;45.50;;;;;;4109508;28;20038;-49
2022/11/23 04:03:12;;;;;;;4.53;2.85;;;23.80;45.60;;;;;;4109005;28;20042;-50
2022/11/23 04:05:35;;;;;;;6.65;2.50;;;23.90;46.20;;;;;;4108673;28;20161;-50
2022/11/23 04:07:57;;;;;;;5.95;2.88;;;23.90;45.50;;;;;;4109646;28;20046;-45
2022/11/23 04:10:20;;;;;;;4.82;2.47;;;24.00;45.50;;;;;;4107862;28;20117;-47
2022/11/23 04:12:43;;;;;;;3.58;2.05;;;24.10;45.60;;;;;;4104375;28;20125;-46
2022/11/23 04:15:06;;;;;;;4.93;2.38;;;24.20;45.60;;;;;;4126714;23;20498;-52
2022/11/23 04:17:28;;;;;;;3.33;2.07;;;24.30;45.30;;;;;;4086428;28;20090;-50
2022/11/23 04:19:51;;;;;;;4.20;1.80;;;24.40;45.00;;;;;;4103229;28;20550;-51
2022/11/23 04:22:13;;;;;;;2.85;1.50;;;24.40;44.80;;;;;;4100533;28;20469;-49
2022/11/23 04:24:36;;;;;;;4.43;1.42;;;24.60;44.60;;;;;;4102990;28;20050;-48
2022/11/23 04:26:58;;;;;;;1.92;1.13;;;24.60;44.30;;;;;;4099816;28;20561;-50
2022/11/23 04:29:21;;;;;;;3.38;1.85;;;24.70;44.20;;;;;;4096436;28;20039;-47
2022/11/23 04:31:44;;;;;;;1.98;1.33;;;24.80;44.10;;;;;;4104285;28;20135;-50
2022/11/23 04:34:06;;;;;;;2.50;1.50;;;24.80;43.90;;;;;;4105141;28;20053;-52
2022/11/23 04:36:29;;;;;;;2.35;1.23;;;24.90;43.70;;;;;;4106387;28;20050;-52
2022/11/23 04:38:52;;;;;;;2.70;1.10;;;25.00;43.60;;;;;;4105406;28;20054;-52
2022/11/23 04:41:14;;;;;;;2.33;1.10;;;25.00;43.50;;;;;;4099950;28;20389;-52
2022/11/23 04:43:37;;;;;;;2.58;1.20;;;25.10;43.40;;;;;;4099093;28;20570;-53
2022/11/23 04:45:59;;;;;;;1.75;0.90;;;25.10;43.20;;;;;;4138814;23;20056;-49
2022/11/23 04:48:22;;;;;;;1.60;0.90;;;25.20;43.10;;;;;;4125261;28;20533;-49
2022/11/23 04:50:44;;;;;;;0.98;0.77;;;25.30;43.00;;;;;;4122251;28;20033;-52
2022/11/23 04:53:07;;;;;;;2.45;0.80;;;25.40;43.00;;;;;;4121323;28;20747;-49
2022/11/23 04:55:30;;;;;;;1.83;0.63;;;25.40;42.80;;;;;;4124778;28;20050;-50
2022/11/23 04:57:52;;;;;;;1.75;0.80;;;25.50;42.80;;;;;;4132941;28;20531;-50
2022/11/23 05:00:15;;;;;;;1.63;0.73;;;25.60;42.60;;;;;;4127201;28;20042;-53
2022/11/23 05:02:38;;;;;;;0.73;0.50;;;25.70;42.50;;;;;;4124079;28;20104;-54
2022/11/23 05:05:00;;;;;;;1.10;0.75;;;25.70;42.40;;;;;;4111309;28;20288;-52
2022/11/23 05:07:26;;;;;;;1.02;0.50;;;25.80;42.40;;;;;;4110834;28;20046;-51
2022/11/23 05:09:48;;;;;;;2.03;0.80;;;25.90;42.30;;;;;;4113386;28;20057;-53
2022/11/23 05:12:11;;;;;;;2.40;0.75;;;26.00;42.20;;;;;;4110326;28;20039;-50
2022/11/23 05:14:33;;;;;;;2.03;0.93;;;26.10;42.10;;;;;;4113641;28;20038;-51
2022/11/23 05:16:56;;;;;;;0.82;0.38;;;26.20;42.10;;;;;;4115137;28;20037;-51
2022/11/23 05:19:18;;;;;;;1.63;0.73;;;26.20;41.90;;;;;;4109327;28;20066;-50
2022/11/23 05:21:41;;;;;;;0.85;0.50;;;26.30;41.90;;;;;;4111133;28;20714;-51
2022/11/23 05:24:03;;;;;;;1.00;0.60;;;26.30;41.80;;;;;;4109704;28;20045;-50
2022/11/23 05:26:26;;;;;;;1.45;0.80;;;26.50;41.80;;;;;;4093035;28;20047;-46
2022/11/23 05:28:48;;;;;;;2.15;0.73;;;26.50;41.70;;;;;;4111812;28;20558;-53
2022/11/23 05:31:11;;;;;;;1.05;0.65;;;26.60;41.70;;;;;;4110647;28;20101;-47
2022/11/23 05:33:34;;;;;;;2.25;0.98;;;26.70;41.60;;;;;;4109992;28;20054;-47
2022/11/23 05:35:57;;;;;;;1.98;0.90;;;26.70;41.50;;;;;;4111283;28;20097;-50
2022/11/23 05:38:19;;;;;;;1.58;0.75;;;26.80;41.50;;;;;;4105560;28;20538;-51
2022/11/23 05:40:43;;;;;;;3.17;0.77;;;26.80;41.40;;;;;;4102394;28;20046;-53
2022/11/23 05:43:06;;;;;;;1.40;0.63;;;26.90;41.50;;;;;;4109452;28;20050;-48
2022/11/23 05:45:29;;;;;;;1.95;0.85;;;26.90;41.30;;;;;;4110548;28;20062;-49
2022/11/23 05:47:53;;;;;;;1.55;0.55;;;27.00;41.30;;;;;;4111040;28;20668;-53
2022/11/23 05:50:15;;;;;;;1.90;0.50;;;27.00;41.20;;;;;;4113663;28;20039;-52
2022/11/23 05:52:38;;;;;;;1.67;0.60;;;27.10;41.20;;;;;;4113829;28;20038;-52
2022/11/23 05:55:00;;;;;;;0.82;0.60;;;27.20;41.20;;;;;;4114540;28;20509;-48
2022/11/23 05:57:23;;;;;;;1.20;0.60;;;27.20;41.10;;;;;;4110756;28;20061;-53
2022/11/23 05:59:46;;;;;;;2.40;0.70;;;27.20;41.10;;;;;;4113055;28;20066;-50
2022/11/23 06:02:08;;;;;;;2.15;0.95;;;27.30;41.10;;;;;;4110880;28;20125;-49
2022/11/23 06:04:31;;;;;;;2.60;0.70;;;27.30;41.00;;;;;;4111381;28;20574;-49
2022/11/23 06:06:53;;;;;;;1.50;0.65;;;27.40;41.00;;;;;;4114290;28;20038;-48
2022/11/23 06:09:16;;;;;;;0.63;0.40;;;27.40;40.90;;;;;;4111488;28;20041;-51
2022/11/23 06:11:38;;;;;;;1.60;0.77;;;27.50;41.00;;;;;;4113825;28;20133;-49
2022/11/23 06:14:01;;;;;;;1.40;0.50;;;27.50;41.00;;;;;;4112786;28;20684;-51
2022/11/23 06:16:24;;;;;;;1.92;0.85;;;27.60;41.00;;;;;;4108943;28;20097;-49
2022/11/23 06:18:46;;;;;;;0.38;0.30;;;27.60;41.00;;;;;;4105714;28;20515;-51
2022/11/23 06:21:09;;;;;;;0.73;0.43;;;27.60;41.00;;;;;;4103929;28;20047;-50
2022/11/23 06:23:32;;;;;;;1.45;0.40;;;27.60;41.00;;;;;;4106870;28;20049;-51
2022/11/23 06:25:54;;;;;;;1.73;0.52;;;27.60;40.90;;;;;;4107265;28;20023;-51
2022/11/23 06:28:17;;;;;;;0.98;0.40;;;27.60;41.00;;;;;;4112223;28;20101;-48
2022/11/23 06:30:39;;;;;;;1.40;0.52;;;27.70;41.00;;;;;;4114373;28;20096;-47
2022/11/23 06:33:05;;;;;;;1.20;0.50;;;27.70;41.00;;;;;;4108623;28;20064;-53
2022/11/23 06:35:28;;;;;;;0.45;0.30;;;27.60;41.00;;;;;;4111908;28;20145;-51
2022/11/23 06:37:52;;;;;;;0.98;0.40;;;27.60;41.00;;;;;;4111887;28;20050;-52
2022/11/23 06:40:15;;;;;;;1.55;0.50;;;27.70;41.10;;;;;;4115156;28;20486;-46
2022/11/23 06:42:37;;;;;;;0.50;0.45;;;27.70;41.10;;;;;;4114610;28;20049;-52
2022/11/23 06:45:00;;;;;;;0.73;0.57;;;27.60;41.00;;;;;;4104860;28;20141;-51
2022/11/23 06:47:22;;;;;;;0.50;0.30;;;27.60;41.00;;;;;;4110540;28;20034;-47
2022/11/23 06:49:45;;;;;;;0.20;0.20;;;27.60;41.00;;;;;;4106967;28;20046;-52
2022/11/23 06:52:07;;;;;;;0.40;0.40;;;27.70;41.10;;;;;;4103213;28;20098;-53
2022/11/23 06:54:30;;;;;;;0.70;0.43;;;27.60;41.10;;;;;;4114305;28;20045;-49
2022/11/23 06:56:52;;;;;;;0.30;0.20;;;27.60;41.30;;;;;;4106904;28;20451;-50
2022/11/23 06:59:15;;;;;;;1.25;0.45;;;27.50;41.30;;;;;;4108812;28;20043;-51
2022/11/23 07:01:37;;;;;;;1.52;0.68;;;27.50;41.50;;;;;;4106028;28;20042;-52
2022/11/23 07:04:00;;;;;;;0.70;0.40;;;27.40;41.60;;;;;;4111539;28;20064;-50
2022/11/23 07:06:22;;;;;;;0.40;0.30;;;27.40;41.60;;;;;;4109013;28;20038;-49
2022/11/23 07:08:45;;;;;;;0.20;0.20;;;27.30;41.70;;;;;;4111570;28;20043;-48
2022/11/23 07:11:08;;;;;;;0.55;0.20;;;27.30;41.70;;;;;;4107223;28;20093;-48
2022/11/23 07:13:31;;;;;;;0.77;0.35;;;27.30;41.70;;;;;;4109050;28;20360;-49
2022/11/23 07:15:54;;;;;;;1.02;0.40;;;27.20;41.70;;;;;;4109168;28;20030;-46
2022/11/23 07:18:16;;;;;;;0.35;0.20;;;27.20;41.60;;;;;;4109019;28;20038;-47
2022/11/23 07:20:39;;;;;;;0.40;0.30;;;27.20;41.70;;;;;;4109619;28;20073;-49
2022/11/23 07:23:06;;;;;;;0.20;0.20;;;27.20;41.70;;;;;;4107506;28;20035;-47
2022/11/23 07:25:30;;;;;;;0.50;0.28;;;27.20;41.80;;;;;;4107385;28;20449;-50
2022/11/23 07:27:57;;;;;;;0.20;0.20;;;27.10;41.80;;;;;;4109340;28;20042;-50
2022/11/23 07:30:19;;;;;;;0.75;0.50;;;27.10;41.90;;;;;;4109787;28;20035;-50
2022/11/23 07:32:42;;;;;;;1.48;0.60;;;27.10;42.00;;;;;;4106684;28;20050;-49
2022/11/23 07:35:05;;;;;;;0.75;0.40;;;27.10;42.10;;;;;;4112480;28;20061;-48
2022/11/23 07:37:27;;;;;;;0.27;0.27;;;27.10;42.10;;;;;;4107416;28;20042;-50
2022/11/23 07:39:51;;;;;;;0.65;0.30;;;27.00;42.10;;;;;;4111248;28;20292;-50
2022/11/23 07:42:14;;;;;;;0.85;0.30;;;27.00;42.20;;;;;;4114902;28;20043;-50
2022/11/23 07:44:36;;;;;;;0.20;0.20;;;27.00;42.20;;;;;;4104428;28;20046;-48
2022/11/23 07:46:59;;;;;;;0.32;0.20;;;27.00;42.30;;;;;;4109128;28;20105;-52
2022/11/23 07:49:22;;;;;;;0.40;0.40;;;27.00;42.30;;;;;;4113919;28;20582;-46
2022/11/23 07:51:44;;;;;;;0.30;0.30;;;26.90;42.30;;;;;;4110599;28;20576;-48
2022/11/23 07:54:07;;;;;;;0.30;0.30;;;26.90;42.40;;;;;;4108184;28;20045;-52
2022/11/23 07:56:29;;;;;;;0.90;0.50;;;26.90;42.20;;;;;;4110243;28;20356;-48
2022/11/23 07:58:52;;;;;;;0.50;0.50;;;26.90;42.20;;;;;;4105270;28;20082;-48
2022/11/23 08:01:17;;;;;;;0.50;0.50;;;26.90;42.20;;;;;;4107458;28;20486;-48
2022/11/23 08:03:40;;;;;;;1.55;0.50;;;26.90;42.40;;;;;;4093164;28;20745;-49
2022/11/23 08:06:02;;;;;;;0.60;0.60;;;26.90;42.30;;;;;;4112705;28;20046;-48
2022/11/23 08:08:25;;;;;;;0.73;0.70;;;26.90;42.40;;;;;;4113150;28;20490;-46
2022/11/23 08:10:47;;;;;;;0.80;0.57;;;26.90;42.30;;;;;;4113608;28;20043;-46
2022/11/23 08:13:10;;;;;;;0.68;0.65;;;26.90;42.40;;;;;;4106982;28;20046;-47
2022/11/23 08:15:33;;;;;;;1.85;0.98;;;26.90;42.30;;;;;;4109961;28;20038;-50
2022/11/23 08:18:00;;;;;;;0.90;0.90;;;26.80;42.10;;;;;;4107067;28;20138;-47
2022/11/23 08:20:23;;;;;;;1.65;0.90;;;26.80;42.10;;;;;;4105274;28;20129;-46
2022/11/23 08:22:45;;;;;;;0.80;0.80;;;26.80;42.10;;;;;;4110513;28;20035;-46
2022/11/23 08:25:08;;;;;;;1.40;1.20;;;26.80;42.10;;;;;;4109285;28;20034;-47
2022/11/23 08:27:31;;;;;;;0.87;0.70;;;26.80;42.20;;;;;;4109192;28;20599;-48
2022/11/23 08:29:53;;;;;;;4.30;1.10;;;26.80;42.20;;;;;;4108791;28;20031;-48
2022/11/23 08:32:16;;;;;;;0.82;0.80;;;26.80;42.10;;;;;;4110832;28;20039;-46
2022/11/23 08:34:38;;;;;;;1.00;0.90;;;26.80;42.10;;;;;;4108783;28;20049;-46
2022/11/23 08:37:01;;;;;;;3.95;1.05;;;26.80;42.00;;;;;;4109692;28;20046;-46
2022/11/23 08:39:23;;;;;;;1.23;1.10;;;26.80;42.10;;;;;;4112600;28;20061;-52
2022/11/23 08:41:46;;;;;;;1.20;1.10;;;26.80;42.10;;;;;;4106658;28;20031;-48
2022/11/23 08:44:10;;;;;;;1.10;0.80;;;26.80;42.10;;;;;;4108753;28;20090;-46
2022/11/23 08:46:32;;;;;;;1.05;0.90;;;26.70;42.20;;;;;;4101648;28;20592;-46
2022/11/23 08:48:55;;;;;;;1.02;0.90;;;26.70;42.20;;;;;;4098652;28;20047;-47
2022/11/23 08:51:21;;;;;;;1.05;0.90;;;26.70;42.20;;;;;;4104609;28;20121;-49
2022/11/23 08:53:44;;;;;;;2.53;1.08;;;26.70;42.30;;;;;;4103398;28;20496;-48
2022/11/23 08:56:07;;;;;;;1.48;0.77;;;26.60;42.40;;;;;;4104790;28;20035;-48
2022/11/23 08:58:30;;;;;;;2.00;0.80;;;26.60;42.40;;;;;;4105078;28;20069;-48
2022/11/23 09:00:53;;;;;;;2.72;0.82;;;26.60;42.60;;;;;;4100518;28;20042;-51
2022/11/23 09:03:15;;;;;;;1.23;0.60;;;26.60;42.70;;;;;;4095153;28;20101;-51
2022/11/23 09:05:38;;;;;;;1.85;0.70;;;26.60;42.70;;;;;;4099791;28;20038;-46
2022/11/23 09:08:01;;;;;;;0.88;0.60;;;26.60;42.70;;;;;;4102199;28;21136;-49
2022/11/23 09:10:24;;;;;;;1.23;0.75;;;26.50;42.60;;;;;;4102175;28;20961;-48
2022/11/23 09:12:48;;;;;;;0.52;0.50;;;26.60;42.70;;;;;;4104259;28;20068;-48
2022/11/23 09:15:11;;;;;;;1.20;0.60;;;26.50;42.60;;;;;;4111043;28;20386;-48
2022/11/23 09:17:33;;;;;;;0.40;0.40;;;26.50;42.60;;;;;;4107320;28;20033;-45
2022/11/23 09:19:56;;;;;;;0.90;0.43;;;26.50;42.60;;;;;;4110526;28;20065;-49
2022/11/23 09:22:18;;;;;;;0.40;0.40;;;26.50;42.60;;;;;;4108468;28;20456;-47
2022/11/23 09:24:41;;;;;;;0.57;0.40;;;26.50;42.70;;;;;;4108205;28;20047;-45
2022/11/23 09:27:03;;;;;;;1.00;0.60;;;26.50;42.80;;;;;;4109938;28;20476;-48
2022/11/23 09:29:26;;;;;;;1.23;0.50;;;26.50;42.80;;;;;;4108106;28;20034;-51
2022/11/23 09:31:49;;;;;;;0.80;0.60;;;26.50;42.90;;;;;;4115574;28;20042;-47
2022/11/23 09:34:14;;;;;;;0.50;0.40;;;26.40;42.90;;;;;;4106183;28;20315;-48
2022/11/23 09:36:37;;;;;;;0.40;0.40;;;26.50;42.90;;;;;;4102510;28;20069;-50
2022/11/23 09:39:01;;;;;;;0.98;0.40;;;26.40;42.90;;;;;;4108082;28;20058;-50
2022/11/23 09:42:04;;;;;;;1.25;0.50;;;26.40;42.90;;;;;;4108013;28;20453;-47
2022/11/23 09:44:32;;;;;;;0.75;0.47;;;26.40;43.60;;;;;;4107032;28;20077;-50
2022/11/23 09:46:55;;;;;;;0.70;0.52;;;26.40;43.00;;;;;;4109097;28;20062;-50
2022/11/23 09:49:20;;;;;;;0.43;0.40;;;26.40;43.00;;;;;;4108476;28;20430;-47
2022/11/23 09:51:44;;;;;;;1.27;0.60;;;26.40;43.10;;;;;;4104951;28;20090;-45
2022/11/23 09:54:22;;;;;;;0.50;0.40;;;26.40;43.10;;;;;;4103352;28;20045;-49
2022/11/23 09:56:48;;;;;;;1.13;0.60;;;26.40;43.10;;;;;;4105103;28;20061;-46
2022/11/23 09:59:25;;;;;;;1.13;0.60;;;26.40;43.30;;;;;;4107262;28;20091;-46
2022/11/23 10:01:48;;;;;;;0.88;0.60;;;26.40;43.30;;;;;;4103879;28;20498;-47
2022/11/23 10:04:18;;;;;;;2.22;0.80;;;26.40;43.40;;;;;;4105570;28;20071;-45
2022/11/23 10:06:43;;;;;;;0.88;0.60;;;26.40;43.40;;;;;;4108201;28;20050;-48
2022/11/23 10:09:24;;;;;;;1.88;0.60;;;26.40;43.50;;;;;;4107926;28;20075;-51
2022/11/23 10:12:28;;;;;;;1.20;0.70;;;26.30;43.50;;;;;;4110469;28;20062;-53
2022/11/23 10:15:22;;;;;;;0.60;0.50;;;26.40;43.60;;;;;;4045660;29;20048;-46
2022/11/23 10:18:08;;;;;;;1.02;0.57;;;26.30;43.60;;;;;;4026843;29;20563;-52
2022/11/23 10:20:54;;;;;;;0.90;0.68;;;26.40;43.70;;;;;;4105486;28;20038;-48
2022/11/23 10:23:31;;;;;;;2.33;1.13;;;26.40;43.80;;;;;;4110430;28;20513;-47
2022/11/23 10:25:54;;;;;;;1.23;0.52;;;26.40;43.80;;;;;;4107604;28;20042;-47
2022/11/23 10:28:19;;;;;;;0.90;0.70;;;26.40;43.90;;;;;;4102017;28;20411;-46
2022/11/23 10:30:42;;;;;;;2.03;0.60;;;26.30;43.90;;;;;;4104936;28;20490;-49
2022/11/23 10:33:35;;;;;;;1.05;0.73;;;26.30;43.90;;;;;;4107049;28;20038;-46
2022/11/23 10:35:58;;;;;;;1.02;0.75;;;26.30;44.00;;;;;;4106231;28;20049;-49
2022/11/23 10:38:24;;;;;;;1.10;0.70;;;26.30;44.10;;;;;;4103107;28;20538;-47
2022/11/23 10:40:58;;;;;;;2.42;0.70;;;26.30;44.20;;;;;;4105073;28;20495;-47
2022/11/23 10:43:27;;;;;;;1.73;0.70;;;26.30;44.20;;;;;;4104926;28;20118;-45
2022/11/23 10:45:50;;;;;;;1.45;0.73;;;26.30;44.30;;;;;;4105494;28;20463;-45
2022/11/23 10:48:12;;;;;;;1.55;0.95;;;26.30;44.30;;;;;;4103690;28;20045;-49
2022/11/23 10:50:39;;;;;;;1.35;0.80;;;26.30;44.40;;;;;;4105193;28;20034;-46
2022/11/23 10:53:18;;;;;;;0.85;0.60;;;26.30;44.30;;;;;;4102504;28;20414;-44
2022/11/23 11:02:22;;;;;;;1.42;0.90;;;26.20;44.40;;;;;;4077459;28;20034;-47
2022/11/23 11:04:47;;;;;;;2.45;0.90;;;26.30;44.50;;;;;;4101283;28;20045;-47
2022/11/23 11:07:30;;;;;;;1.65;0.75;;;26.30;44.50;;;;;;4095527;28;20065;-48
2022/11/23 11:09:58;;;;;;;1.58;0.88;;;26.20;44.40;;;;;;4095557;28;20035;-46
2022/11/23 11:12:22;;;;;;;1.55;1.05;;;26.20;44.50;;;;;;4106250;28;20027;-50
2022/11/23 11:15:17;;;;;;;1.75;1.00;;;26.20;44.50;;;;;;4107478;28;20471;-52
2022/11/23 11:17:41;;;;;;;2.08;0.90;;;26.20;44.50;;;;;;4106327;28;20101;-51
2022/11/23 11:20:26;;;;;;;1.80;1.10;;;26.20;44.60;;;;;;4087206;28;20047;-49
2022/11/23 11:22:49;;;;;;;1.70;0.93;;;26.20;44.60;;;;;;4096179;28;20280;-49
2022/11/23 11:25:34;;;;;;;2.10;1.13;;;26.20;44.70;;;;;;4102942;28;20050;-55
2022/11/23 11:27:58;;;;;;;2.22;1.08;;;26.20;44.60;;;;;;4104164;28;20558;-53
2022/11/23 11:30:24;;;;;;;6.72;1.42;;;26.20;44.90;;;;;;4103515;28;20494;-49
2022/11/23 11:33:02;;;;;;;3.78;1.10;;;26.20;45.00;;;;;;4105384;28;20399;-55
2022/11/23 11:35:57;;;;;;;9.52;1.55;;;26.20;45.10;;;;;;4105366;28;20042;-55
2022/11/23 11:38:28;;;;;;;2.97;1.23;;;26.20;45.40;;;;;;4098141;28;20051;-57
2022/11/23 11:40:53;;;;;;;2.35;1.27;;;26.20;45.60;;;;;;4104261;28;20471;-56
2022/11/23 11:43:34;;;;;;;4.18;1.30;;;26.20;45.90;;;;;;4105022;28;20534;-55
2022/11/23 11:46:01;;;;;;;10.38;1.08;;;26.20;46.00;;;;;;4105415;28;20522;-57
2022/11/23 11:48:34;;;;;;;5.18;1.02;;;26.20;46.10;;;;;;4108603;28;20027;-54
2022/11/23 11:51:14;;;;;;;5.15;1.02;;;26.30;46.30;;;;;;4103757;28;20030;-55
2022/11/23 11:53:54;;;;;;;3.38;0.95;;;26.20;46.20;;;;;;4107617;28;20045;-56
2022/11/23 11:56:35;;;;;;;2.83;0.80;;;26.30;46.20;;;;;;4102606;28;20475;-55
2022/11/23 11:59:16;;;;;;;2.58;0.63;;;26.30;46.30;;;;;;4109456;28;20061;-55
2022/11/23 12:01:47;;;;;;;5.13;0.85;;;26.30;46.30;;;;;;4104846;28;20229;-48
2022/11/23 12:04:21;;;;;;;2.25;0.88;;;26.30;46.60;;;;;;4105292;28;20153;-46
2022/11/23 12:06:53;;;;;;;2.47;1.08;;;26.30;46.20;;;;;;4107100;28;20122;-55
2022/11/23 12:09:27;;;;;;;5.95;1.23;;;26.30;46.00;;;;;;4105297;28;20507;-55
2022/11/23 12:11:49;;;;;;;4.65;0.90;;;26.30;46.70;;;;;;4108511;28;20078;-57
2022/11/23 12:14:14;;;;;;;1.73;1.00;;;26.30;46.90;;;;;;4104161;28;20058;-58
2022/11/23 12:16:42;;;;;;;3.60;1.05;;;26.30;46.90;;;;;;4103157;28;20041;-57
2022/11/23 12:19:25;;;;;;;1.88;0.60;;;26.30;47.00;;;;;;4107424;28;20055;-58
2022/11/23 12:22:06;;;;;;;3.63;0.82;;;26.30;47.10;;;;;;4090342;28;20490;-54
2022/11/23 12:24:57;;;;;;;3.88;1.08;;;26.30;47.30;;;;;;4105461;28;20066;-56
2022/11/23 12:27:28;;;;;;;9.88;1.23;;;26.30;47.40;;;;;;4102643;28;20490;-61
2022/11/23 12:30:09;;;;;;;6.07;1.33;;;26.30;47.60;;;;;;4104052;28;20031;-58
2022/11/23 12:33:04;;;;;;;1.88;0.63;;;26.30;47.60;;;;;;4105387;28;20039;-59
2022/11/23 12:35:50;;;;;;;2.83;0.73;;;26.30;47.60;;;;;;4105979;28;20387;-52
2022/11/23 12:38:43;;;;;;;2.67;0.68;;;26.30;47.70;;;;;;4105491;28;20296;-53
2022/11/23 12:41:41;;;;;;;3.63;0.70;;;26.30;47.80;;;;;;4106147;28;20073;-55
2022/11/23 12:44:21;;;;;;;2.72;0.95;;;26.30;47.80;;;;;;4105365;28;20047;-52
2022/11/23 12:47:19;;;;;;;5.57;1.00;;;26.40;47.80;;;;;;4107288;28;20643;-58